Time;durP1;ratioP1;P1;durP2;ratioP2;P2;SDS_P1;SDS_P2;PMS_P1;PMS_P2;Temp;Humidity;BMP_temperature;BMP_pressure;BME280_temperature;BME280_humidity;BME280_pressure;Samples;Min_cycle;Max_cycle;Signal;HPM_P1;HPM_P2
2024/01/15 00:01:08;;;;;;;5.13;0.52;;;6.50;66.00;8.30;100113.00;;;;5031146;28;20196;-73
2024/01/15 00:03:36;;;;;;;2.60;0.98;;;6.50;66.00;8.20;100118.00;;;;5033224;28;20589;-74
2024/01/15 00:06:04;;;;;;;4.22;0.50;;;6.50;66.10;8.20;100106.00;;;;5023275;28;20196;-74
2024/01/15 00:08:31;;;;;;;5.00;0.60;;;6.40;66.00;8.10;100111.00;;;;5043480;28;20677;-73
2024/01/15 00:10:58;;;;;;;1.88;0.30;;;6.40;66.10;8.10;100106.00;;;;5047811;28;20234;-73
2024/01/15 00:13:25;;;;;;;4.35;0.60;;;6.30;66.10;8.10;100101.00;;;;5033006;28;20201;-73
2024/01/15 00:15:52;;;;;;;1.90;0.60;;;6.30;66.10;8.00;100105.00;;;;5032404;28;20204;-73
2024/01/15 00:18:19;;;;;;;2.33;0.50;;;6.30;66.20;8.00;100095.00;;;;5021371;28;20192;-73
2024/01/15 00:20:48;;;;;;;3.28;0.43;;;6.30;66.20;8.00;100093.00;;;;5014255;28;20303;-74
2024/01/15 00:23:15;;;;;;;2.95;0.32;;;6.20;66.10;7.90;100089.00;;;;5025155;28;20243;-73
2024/01/15 00:25:54;;;;;;;7.60;1.27;;;6.20;66.10;7.80;100082.00;;;;5046572;28;20195;-74
2024/01/15 00:28:21;;;;;;;4.43;0.50;;;6.10;66.20;7.80;100077.00;;;;5037715;28;20661;-73
2024/01/15 00:30:48;;;;;;;3.38;0.50;;;6.10;66.10;7.80;100073.00;;;;5032535;28;20286;-73
2024/01/15 00:33:15;;;;;;;4.93;0.82;;;6.10;66.20;7.80;100078.00;;;;5032123;28;20243;-73
2024/01/15 00:35:42;;;;;;;1.90;0.30;;;6.00;66.20;7.80;100068.00;;;;5033404;28;20199;-73
2024/01/15 00:38:10;;;;;;;3.00;0.35;;;6.00;66.40;7.80;100073.00;;;;5032465;28;20583;-74
2024/01/15 00:40:37;;;;;;;6.05;0.50;;;6.00;66.40;7.70;100064.00;;;;5024659;28;20201;-73
2024/01/15 00:43:07;;;;;;;1.88;0.38;;;5.90;66.40;7.70;100054.00;;;;5039088;28;20255;-73
2024/01/15 00:45:34;;;;;;;4.28;0.50;;;5.90;66.40;7.70;100055.00;;;;5033676;28;20196;-73
2024/01/15 00:48:01;;;;;;;5.03;0.75;;;5.90;66.40;7.70;100039.00;;;;5032903;28;20283;-73
2024/01/15 00:50:28;;;;;;;4.55;0.50;;;5.90;66.50;7.70;100034.00;;;;5033198;28;20283;-73
2024/01/15 00:52:55;;;;;;;1.65;0.38;;;5.90;66.50;7.70;100033.00;;;;5032482;28;20564;-73
2024/01/15 00:55:23;;;;;;;2.17;0.40;;;5.90;66.40;7.60;100032.00;;;;5032051;28;20192;-73
2024/01/15 00:57:50;;;;;;;1.63;0.50;;;5.90;66.60;7.60;100037.00;;;;5031756;28;20193;-73
2024/01/15 01:00:18;;;;;;;4.20;0.57;;;5.80;66.50;7.60;100036.00;;;;5052138;28;20208;-73
2024/01/15 01:02:45;;;;;;;1.50;0.40;;;5.80;66.50;7.60;100030.00;;;;5042890;28;20705;-73
2024/01/15 01:05:12;;;;;;;3.35;0.50;;;5.80;66.50;7.60;100038.00;;;;5031961;28;20214;-73
2024/01/15 01:07:39;;;;;;;1.80;0.45;;;5.70;66.40;7.50;100036.00;;;;5031895;28;20200;-73
2024/01/15 01:10:07;;;;;;;1.88;0.40;;;5.70;66.50;7.50;100038.00;;;;5031716;28;20258;-73
2024/01/15 01:12:36;;;;;;;5.47;0.85;;;5.70;66.40;7.50;100024.00;;;;5031976;28;20201;-73
2024/01/15 01:15:03;;;;;;;8.95;1.05;;;5.70;66.40;7.50;100023.00;;;;5029107;28;20205;-73
2024/01/15 01:17:31;;;;;;;3.45;0.30;;;5.70;66.50;7.40;100030.00;;;;5030840;28;20250;-73
2024/01/15 01:19:58;;;;;;;3.80;0.80;;;5.60;66.90;7.40;100030.00;;;;5029136;28;20205;-73
2024/01/15 01:22:25;;;;;;;2.58;0.40;;;5.60;66.40;7.40;100027.00;;;;5032337;28;20355;-74
2024/01/15 01:24:52;;;;;;;2.50;0.45;;;5.60;66.50;7.40;100022.00;;;;5031412;28;20200;-73
2024/01/15 01:27:19;;;;;;;3.78;0.52;;;5.60;66.50;7.40;100023.00;;;;5030791;28;20676;-74
2024/01/15 01:29:47;;;;;;;6.40;0.75;;;5.60;66.50;7.40;100019.00;;;;5030259;28;20294;-74
2024/01/15 01:32:14;;;;;;;4.80;0.40;;;5.60;67.20;7.40;100025.00;;;;5034386;28;20197;-73
2024/01/15 01:34:43;;;;;;;2.72;0.52;;;5.50;66.50;7.30;100028.00;;;;5052840;28;20207;-73
2024/01/15 01:37:10;;;;;;;3.13;0.45;;;5.50;67.00;7.30;100029.00;;;;5031260;28;20204;-73
2024/01/15 01:39:37;;;;;;;4.43;0.52;;;5.50;66.70;7.30;100024.00;;;;5031741;28;20287;-73
2024/01/15 01:42:04;;;;;;;3.40;0.50;;;5.50;66.60;7.30;100026.00;;;;5031632;28;20628;-73
2024/01/15 01:44:32;;;;;;;3.85;0.50;;;5.50;66.70;7.30;100024.00;;;;5032080;28;20192;-73
2024/01/15 01:47:01;;;;;;;2.47;0.70;;;5.40;66.60;7.30;100026.00;;;;5022697;28;20209;-73
2024/01/15 01:49:29;;;;;;;4.40;0.88;;;5.40;66.60;7.30;100030.00;;;;5034426;28;20715;-73
2024/01/15 01:52:00;;;;;;;4.43;0.88;;;5.40;66.60;7.30;100029.00;;;;5043388;28;20564;-73
2024/01/15 01:54:32;;;;;;;3.25;0.70;;;5.40;66.60;7.20;100026.00;;;;5032101;28;20205;-73
2024/01/15 01:56:59;;;;;;;4.03;0.50;;;5.40;66.60;7.20;100024.00;;;;5028521;28;20279;-73
2024/01/15 01:59:28;;;;;;;2.42;0.73;;;5.40;66.60;7.20;100029.00;;;;5031954;28;20222;-73
2024/01/15 02:01:56;;;;;;;3.88;0.57;;;5.40;67.20;7.20;100036.00;;;;5031955;28;20732;-73
2024/01/15 02:04:26;;;;;;;4.70;0.60;;;5.40;66.50;7.20;100033.00;;;;5030767;28;20230;-73
2024/01/15 02:06:53;;;;;;;3.63;0.77;;;5.40;66.60;7.20;100038.00;;;;5038144;28;20290;-73
2024/01/15 02:09:20;;;;;;;1.42;0.35;;;5.30;66.50;7.20;100038.00;;;;5035981;28;20192;-73
2024/01/15 02:11:48;;;;;;;4.63;0.70;;;5.30;66.50;7.10;100031.00;;;;5031318;28;20205;-73
2024/01/15 02:14:16;;;;;;;4.63;0.40;;;5.30;66.60;7.10;100030.00;;;;5031647;28;20192;-73
2024/01/15 02:16:43;;;;;;;4.13;1.02;;;5.30;66.60;7.10;100030.00;;;;5030502;28;20188;-73
2024/01/15 02:19:17;;;;;;;4.50;0.65;;;5.30;66.60;7.00;100030.00;;;;5030435;28;20200;-73
2024/01/15 02:21:45;;;;;;;3.85;0.60;;;5.30;66.70;7.10;100022.00;;;;5029967;28;20318;-73
2024/01/15 02:24:14;;;;;;;9.02;0.63;;;5.30;66.80;7.10;100033.00;;;;5028530;28;20232;-73
2024/01/15 02:26:41;;;;;;;3.63;0.57;;;5.30;66.80;7.10;100026.00;;;;5030940;28;20207;-73
2024/01/15 02:29:09;;;;;;;2.92;0.82;;;5.30;66.80;7.10;100025.00;;;;5029025;28;20192;-73
2024/01/15 02:31:37;;;;;;;3.78;0.50;;;5.30;66.90;7.10;100026.00;;;;5030878;28;20291;-73
2024/01/15 02:34:04;;;;;;;3.38;0.63;;;5.30;67.00;7.20;100040.00;;;;5024570;28;20203;-73
2024/01/15 02:36:32;;;;;;;3.05;0.85;;;5.30;67.00;7.20;100037.00;;;;5031422;28;20291;-72
2024/01/15 02:38:59;;;;;;;4.88;0.68;;;5.40;67.20;7.20;100038.00;;;;5028331;28;20196;-73
2024/01/15 02:41:28;;;;;;;4.43;0.70;;;5.40;67.20;7.20;100039.00;;;;5031789;28;20210;-73
2024/01/15 02:43:55;;;;;;;4.05;0.55;;;5.40;67.20;7.30;100046.00;;;;5031344;28;20306;-72
2024/01/15 02:46:22;;;;;;;3.03;0.98;;;5.40;67.90;7.30;100038.00;;;;5030413;28;20197;-73
2024/01/15 02:48:49;;;;;;;6.53;1.20;;;5.50;67.40;7.30;100030.00;;;;5030630;28;20216;-73
2024/01/15 02:51:16;;;;;;;2.33;0.60;;;5.50;67.40;7.40;100029.00;;;;5031220;28;20318;-72
2024/01/15 02:53:43;;;;;;;3.90;0.38;;;5.50;67.50;7.40;100037.00;;;;5030578;28;20295;-73
2024/01/15 02:56:10;;;;;;;2.95;0.60;;;5.60;67.70;7.50;100044.00;;;;5032675;28;20253;-73
2024/01/15 02:58:38;;;;;;;2.83;0.50;;;5.60;67.60;7.60;100045.00;;;;5036497;28;20207;-73
2024/01/15 03:01:05;;;;;;;1.42;0.50;;;5.70;67.60;7.60;100040.00;;;;5035519;28;20290;-73
2024/01/15 03:03:33;;;;;;;5.82;0.60;;;5.70;67.60;7.60;100035.00;;;;5035298;28;20216;-73
2024/01/15 03:06:00;;;;;;;3.28;0.60;;;5.80;67.60;7.70;100032.00;;;;5034739;28;20252;-73
2024/01/15 03:08:29;;;;;;;3.95;0.70;;;5.80;67.50;7.70;100028.00;;;;5032263;28;20199;-73
2024/01/15 03:10:56;;;;;;;3.80;0.47;;;5.80;67.40;7.70;100030.00;;;;5033631;28;20287;-73
2024/01/15 03:13:23;;;;;;;3.90;0.57;;;5.80;67.20;7.70;100014.00;;;;5033444;28;20689;-73
2024/01/15 03:15:51;;;;;;;2.55;0.50;;;5.90;67.10;7.70;100013.00;;;;5034841;28;20284;-73
2024/01/15 03:18:18;;;;;;;1.75;0.35;;;5.90;67.00;7.70;100022.00;;;;5033691;28;20287;-73
2024/01/15 03:20:45;;;;;;;1.75;0.30;;;5.90;66.90;7.70;100024.00;;;;5033983;28;20209;-72
2024/01/15 03:23:12;;;;;;;2.60;0.40;;;5.90;66.90;7.70;100017.00;;;;5031597;28;20240;-73
2024/01/15 03:25:39;;;;;;;3.47;0.40;;;5.90;66.90;7.70;100014.00;;;;5034842;28;20680;-73
2024/01/15 03:28:06;;;;;;;3.38;0.40;;;5.90;66.90;7.70;100023.00;;;;5033725;28;20212;-73
2024/01/15 03:30:33;;;;;;;1.40;0.20;;;5.90;66.90;7.70;100022.00;;;;5033512;28;20564;-73
2024/01/15 03:33:02;;;;;;;4.60;0.30;;;5.80;66.80;7.70;100012.00;;;;5038374;28;20200;-72
2024/01/15 03:35:30;;;;;;;3.78;0.93;;;5.90;66.90;7.70;100014.00;;;;5033036;28;20204;-73
2024/01/15 03:37:57;;;;;;;1.27;0.22;;;5.90;66.90;7.70;100013.00;;;;5032686;28;20200;-73
2024/01/15 03:40:24;;;;;;;2.42;0.77;;;5.90;66.90;7.70;100010.00;;;;5034655;28;20576;-72
2024/01/15 03:42:52;;;;;;;0.70;0.20;;;5.90;66.90;7.80;100009.00;;;;5027832;28;20207;-73
2024/01/15 03:45:19;;;;;;;3.42;0.32;;;5.90;66.90;7.80;99997.00;;;;5014921;28;20193;-73
2024/01/15 03:47:46;;;;;;;2.95;0.30;;;5.90;66.90;7.80;99992.00;;;;5025865;28;20196;-73
2024/01/15 03:50:15;;;;;;;2.17;0.50;;;5.90;67.30;7.80;99992.00;;;;5036434;28;20196;-73
2024/01/15 03:52:42;;;;;;;2.42;0.30;;;5.90;67.00;7.80;100004.00;;;;5033990;28;20193;-72
2024/01/15 03:55:09;;;;;;;2.47;0.30;;;5.90;67.10;7.80;99991.00;;;;5034145;28;20665;-73
2024/01/15 03:57:36;;;;;;;4.60;0.57;;;5.90;67.10;7.90;99994.00;;;;5033683;28;20192;-73
2024/01/15 04:00:05;;;;;;;4.93;0.63;;;5.90;67.20;7.80;99993.00;;;;5023974;28;20201;-72
2024/01/15 04:02:32;;;;;;;3.83;0.65;;;6.00;67.10;7.90;99990.00;;;;5022663;28;20227;-73
2024/01/15 04:04:59;;;;;;;4.40;0.68;;;6.00;67.10;7.90;99989.00;;;;5032160;28;20224;-72
2024/01/15 04:07:27;;;;;;;2.17;0.25;;;6.00;67.20;7.90;99985.00;;;;5034158;28;20231;-73
2024/01/15 04:09:54;;;;;;;3.38;0.32;;;6.00;67.90;7.90;99983.00;;;;5033950;28;20223;-72
2024/01/15 04:12:21;;;;;;;3.28;0.30;;;6.00;67.10;7.90;99983.00;;;;5034140;28;20736;-73
2024/01/15 04:14:48;;;;;;;1.17;0.20;;;6.00;67.10;8.00;99991.00;;;;5032523;28;20207;-73
2024/01/15 04:17:16;;;;;;;4.65;0.28;;;6.10;67.10;8.00;99985.00;;;;5031190;28;20215;-73
2024/01/15 04:19:45;;;;;;;1.83;0.47;;;6.10;67.00;8.00;99978.00;;;;5033552;28;20461;-73
2024/01/15 04:22:12;;;;;;;3.53;0.28;;;6.10;67.00;7.90;99992.00;;;;5032653;28;20229;-73
2024/01/15 04:24:40;;;;;;;4.82;0.20;;;6.10;67.00;7.90;99979.00;;;;5032240;28;20234;-73
2024/01/15 04:27:08;;;;;;;1.98;0.20;;;6.10;66.90;7.90;99972.00;;;;5031427;28;20210;-73
2024/01/15 04:29:35;;;;;;;1.75;0.52;;;6.00;66.70;7.90;99974.00;;;;5030264;28;20207;-73
2024/01/15 04:32:02;;;;;;;5.03;0.45;;;6.00;66.70;7.90;99973.00;;;;5024105;28;20195;-73
2024/01/15 04:34:29;;;;;;;1.67;0.38;;;6.00;66.70;7.80;99973.00;;;;5032136;28;20211;-73
2024/01/15 04:36:56;;;;;;;2.88;0.50;;;6.00;66.70;7.80;99965.00;;;;5029573;28;20752;-73
2024/01/15 04:39:23;;;;;;;4.70;0.65;;;6.00;66.70;7.80;99960.00;;;;5035002;28;20560;-73
2024/01/15 04:41:52;;;;;;;2.40;0.43;;;6.00;66.70;7.70;99956.00;;;;5043546;28;20188;-73
2024/01/15 04:44:19;;;;;;;2.03;0.20;;;6.00;66.70;7.80;99957.00;;;;5031837;28;20802;-73
2024/01/15 04:46:46;;;;;;;3.58;0.40;;;5.90;66.70;7.80;99952.00;;;;5032061;28;20207;-73
2024/01/15 04:49:13;;;;;;;2.35;0.28;;;5.90;66.70;7.70;99958.00;;;;5032514;28;20764;-73
2024/01/15 04:51:40;;;;;;;4.10;0.88;;;5.90;66.70;7.70;99955.00;;;;5031805;28;20200;-73
2024/01/15 04:54:07;;;;;;;2.03;0.47;;;5.90;66.70;7.70;99944.00;;;;5032589;28;20666;-73
2024/01/15 04:56:34;;;;;;;2.67;0.50;;;5.80;66.80;7.70;99950.00;;;;5033915;28;20210;-73
2024/01/15 04:59:02;;;;;;;3.10;0.20;;;5.90;66.90;7.70;99946.00;;;;5031509;28;20196;-73
2024/01/15 05:01:33;;;;;;;1.50;0.20;;;5.90;66.90;7.70;99947.00;;;;5030334;28;20302;-73
2024/01/15 05:04:00;;;;;;;0.88;0.13;;;5.90;66.90;7.80;99944.00;;;;5031395;28;20231;-73
2024/01/15 05:06:27;;;;;;;2.08;0.50;;;5.90;67.60;7.80;99945.00;;;;5031846;28;20197;-73
2024/01/15 05:08:54;;;;;;;1.02;0.73;;;5.90;67.10;7.80;99950.00;;;;5031514;28;20222;-73
2024/01/15 05:11:21;;;;;;;1.00;0.30;;;5.90;67.20;7.90;99949.00;;;;5032122;28;20207;-72
2024/01/15 05:13:48;;;;;;;2.35;0.20;;;5.90;67.30;7.90;99950.00;;;;5037718;28;20227;-73
2024/01/15 05:16:17;;;;;;;1.90;0.20;;;6.00;67.40;7.90;99953.00;;;;5050773;28;20195;-73
2024/01/15 05:18:44;;;;;;;1.73;0.32;;;6.00;67.40;7.90;99949.00;;;;5029185;28;20209;-73
2024/01/15 05:21:12;;;;;;;2.50;0.20;;;6.00;67.40;8.00;99944.00;;;;5022317;28;20200;-73
2024/01/15 05:23:39;;;;;;;3.58;0.43;;;6.00;67.40;8.00;99944.00;;;;4992668;28;1101098;-73
2024/01/15 05:26:06;;;;;;;2.28;0.20;;;6.10;67.40;8.00;99936.00;;;;5031474;28;20266;-73
2024/01/15 05:28:33;;;;;;;2.15;0.43;;;6.10;67.40;8.00;99936.00;;;;5031313;28;20196;-73
2024/01/15 05:31:01;;;;;;;1.58;0.20;;;6.10;67.40;8.00;99936.00;;;;5035683;28;20571;-73
2024/01/15 05:33:29;;;;;;;1.63;0.30;;;6.10;67.40;8.00;99934.00;;;;5031351;28;20287;-73
2024/01/15 05:35:58;;;;;;;2.00;0.40;;;6.10;67.40;8.10;99930.00;;;;5031871;28;20193;-73
2024/01/15 05:38:25;;;;;;;1.52;0.20;;;6.20;67.40;8.10;99938.00;;;;5031372;28;20204;-73
2024/01/15 05:40:52;;;;;;;1.75;0.20;;;6.20;67.30;8.10;99933.00;;;;5030574;28;20579;-73
2024/01/15 05:43:19;;;;;;;1.30;0.40;;;6.20;67.10;8.10;99936.00;;;;5025858;28;20197;-73
2024/01/15 05:45:46;;;;;;;3.22;0.40;;;6.20;67.10;8.10;99925.00;;;;5013110;28;20205;-73
2024/01/15 05:48:14;;;;;;;0.45;0.10;;;6.20;67.10;8.10;99932.00;;;;5042141;28;20237;-73
2024/01/15 05:50:43;;;;;;;1.35;0.30;;;6.20;67.10;8.10;99931.00;;;;5033760;28;20283;-73
2024/01/15 05:53:10;;;;;;;1.00;0.20;;;6.20;67.10;8.10;99931.00;;;;5030394;28;20290;-73
2024/01/15 05:55:38;;;;;;;0.95;0.38;;;6.20;67.10;8.10;99928.00;;;;5029340;28;20224;-73
2024/01/15 05:58:05;;;;;;;3.33;0.30;;;6.20;67.10;8.10;99929.00;;;;5025208;28;20211;-73
2024/01/15 06:00:32;;;;;;;1.77;0.10;;;6.30;67.30;8.10;99923.00;;;;5017859;28;20291;-73
2024/01/15 06:03:00;;;;;;;1.70;0.15;;;6.30;67.20;8.20;99932.00;;;;5029471;28;20192;-73
2024/01/15 06:05:27;;;;;;;1.27;0.08;;;6.30;67.30;8.20;99928.00;;;;5031338;28;20647;-73
2024/01/15 06:07:55;;;;;;;0.57;0.10;;;6.30;67.20;8.20;99920.00;;;;5032294;28;20192;-73
2024/01/15 06:10:22;;;;;;;0.60;0.20;;;6.30;67.30;8.20;99925.00;;;;5031974;28;20657;-73
2024/01/15 06:12:49;;;;;;;1.77;0.22;;;6.30;67.20;8.20;99918.00;;;;5031084;28;20662;-73
2024/01/15 06:15:17;;;;;;;0.60;0.30;;;6.40;67.40;8.30;99922.00;;;;5028975;28;20193;-73
2024/01/15 06:17:44;;;;;;;2.17;0.57;;;6.40;67.40;8.30;99920.00;;;;5030187;28;20216;-73
2024/01/15 06:20:12;;;;;;;1.13;0.40;;;6.40;67.40;8.30;99916.00;;;;5025039;28;20200;-74
2024/01/15 06:22:40;;;;;;;3.03;0.32;;;6.40;67.20;8.30;99927.00;;;;5038503;28;20310;-73
2024/01/15 06:25:09;;;;;;;1.45;0.30;;;6.40;67.20;8.30;99926.00;;;;5024953;28;20235;-73
2024/01/15 06:27:36;;;;;;;1.20;0.43;;;6.40;67.10;8.30;99933.00;;;;5029946;28;20192;-73
2024/01/15 06:30:05;;;;;;;3.45;0.60;;;6.40;67.00;8.30;99926.00;;;;5031595;28;20597;-73
2024/01/15 06:32:32;;;;;;;0.95;0.32;;;6.40;66.90;8.30;99919.00;;;;5027773;28;20200;-73
2024/01/15 06:35:01;;;;;;;1.90;0.30;;;6.40;66.90;8.30;99926.00;;;;5021532;28;20188;-73
2024/01/15 06:37:28;;;;;;;0.93;0.35;;;6.40;66.80;8.30;99922.00;;;;5030023;28;20200;-73
2024/01/15 06:39:55;;;;;;;2.83;0.50;;;6.40;66.80;8.30;99914.00;;;;5029905;28;20197;-73
2024/01/15 06:42:23;;;;;;;0.88;0.38;;;6.40;66.80;8.30;99921.00;;;;5030713;28;20582;-73
2024/01/15 06:44:50;;;;;;;0.52;0.30;;;6.40;66.80;8.30;99935.00;;;;5025440;28;20216;-73
2024/01/15 06:47:18;;;;;;;1.13;0.40;;;6.40;66.70;8.30;99927.00;;;;5011932;28;20192;-73
2024/01/15 06:49:45;;;;;;;0.82;0.28;;;6.40;66.80;8.40;99930.00;;;;5026726;28;20283;-73
2024/01/15 06:52:12;;;;;;;1.45;0.40;;;6.40;66.80;8.40;99930.00;;;;5028431;28;20291;-73
2024/01/15 06:54:39;;;;;;;0.95;0.40;;;6.40;66.80;8.30;99922.00;;;;5022151;28;20196;-73
2024/01/15 06:57:07;;;;;;;1.48;0.57;;;6.40;66.80;8.40;99927.00;;;;5042264;28;20235;-73
2024/01/15 06:59:36;;;;;;;2.22;0.60;;;6.40;66.80;8.40;99923.00;;;;5029529;28;20206;-74
2024/01/15 07:02:03;;;;;;;0.90;0.70;;;6.40;66.80;8.40;99919.00;;;;5029937;28;20192;-76
2024/01/15 07:04:30;;;;;;;2.17;1.27;;;6.40;66.80;8.30;99923.00;;;;5029628;28;20461;-76
2024/01/15 07:06:57;;;;;;;0.40;0.30;;;6.30;67.40;8.50;99916.00;;;;5031553;28;20298;-76
2024/01/15 07:09:25;;;;;;;2.35;0.95;;;6.30;67.40;8.50;99903.00;;;;5031726;28;20193;-76
2024/01/15 07:11:52;;;;;;;1.48;0.60;;;6.40;67.20;8.40;99906.00;;;;5029281;28;20197;-76
2024/01/15 07:14:19;;;;;;;1.30;0.75;;;6.40;67.10;8.40;99911.00;;;;5050323;28;20298;-76
2024/01/15 07:16:47;;;;;;;0.85;0.60;;;6.40;66.90;8.40;99907.00;;;;5051321;28;20191;-76
2024/01/15 07:19:14;;;;;;;0.77;0.57;;;6.40;66.80;8.50;99926.00;;;;5032791;28;20200;-76
2024/01/15 07:21:42;;;;;;;1.52;0.60;;;6.40;66.70;8.40;99929.00;;;;5031406;28;20224;-76
2024/01/15 07:24:11;;;;;;;1.80;0.88;;;6.40;66.60;8.40;99938.00;;;;5013450;28;20228;-76
2024/01/15 07:26:38;;;;;;;2.97;0.90;;;6.40;66.60;8.40;99950.00;;;;5031124;28;21038;-76
2024/01/15 07:29:05;;;;;;;1.75;0.60;;;6.40;66.60;8.30;99947.00;;;;5031238;28;20290;-75
2024/01/15 07:31:33;;;;;;;1.30;0.80;;;6.40;66.50;8.30;99948.00;;;;5050771;28;20203;-74
2024/01/15 07:34:01;;;;;;;2.70;0.60;;;6.40;66.50;8.20;99943.00;;;;5032806;28;20204;-74
2024/01/15 07:36:28;;;;;;;1.60;0.45;;;6.40;66.50;8.20;99930.00;;;;5031220;28;20623;-74
2024/01/15 07:38:56;;;;;;;2.17;0.70;;;6.40;66.50;8.20;99928.00;;;;5029863;28;20200;-75
2024/01/15 07:41:23;;;;;;;1.65;0.75;;;6.30;66.40;8.20;99937.00;;;;5030907;28;20204;-74
2024/01/15 07:43:51;;;;;;;1.05;0.43;;;6.30;66.50;8.20;99937.00;;;;5033596;28;20196;-75
2024/01/15 07:46:18;;;;;;;1.92;0.80;;;6.30;66.50;8.20;99946.00;;;;5036086;28;20204;-74
2024/01/15 07:48:45;;;;;;;1.27;0.50;;;6.30;66.60;8.20;99938.00;;;;5040831;28;20291;-74
2024/01/15 07:51:13;;;;;;;2.80;0.77;;;6.30;66.60;8.20;99932.00;;;;5034757;28;20202;-74
2024/01/15 07:53:40;;;;;;;2.53;0.77;;;6.30;66.70;8.20;99935.00;;;;5034307;28;20291;-74
2024/01/15 07:56:07;;;;;;;0.82;0.38;;;6.20;66.60;8.20;99937.00;;;;5034309;28;20204;-74
2024/01/15 07:58:34;;;;;;;1.48;0.60;;;6.20;66.60;8.20;99938.00;;;;5034522;28;20579;-74
2024/01/15 08:01:01;;;;;;;2.03;0.40;;;6.30;66.70;8.20;99945.00;;;;5033976;28;20551;-75
2024/01/15 08:03:28;;;;;;;1.45;0.50;;;6.20;66.70;8.20;99959.00;;;;5035576;28;20229;-74
2024/01/15 08:05:57;;;;;;;1.23;0.30;;;6.30;66.80;8.20;99957.00;;;;5033820;28;20227;-74
2024/01/15 08:08:26;;;;;;;1.92;0.40;;;6.30;66.90;8.20;99947.00;;;;5034109;28;20192;-74
2024/01/15 08:10:53;;;;;;;2.15;0.70;;;6.30;66.90;8.20;99943.00;;;;5034329;28;20239;-75
2024/01/15 08:13:21;;;;;;;1.55;0.30;;;6.30;66.90;8.30;99929.00;;;;5034133;28;20204;-74
2024/01/15 08:15:48;;;;;;;2.88;0.47;;;6.30;67.00;8.30;99921.00;;;;5034029;28;20197;-75
2024/01/15 08:18:15;;;;;;;1.70;0.40;;;6.30;66.90;8.30;99922.00;;;;5033231;28;20713;-75
2024/01/15 08:20:42;;;;;;;2.10;0.50;;;6.30;66.90;8.30;99930.00;;;;5039477;28;20689;-75
2024/01/15 08:23:09;;;;;;;1.35;0.45;;;6.30;67.50;8.30;99928.00;;;;5035593;28;20265;-75
2024/01/15 08:25:38;;;;;;;1.08;0.60;;;6.30;66.80;8.30;99929.00;;;;5054223;28;20692;-75
2024/01/15 08:28:05;;;;;;;1.42;0.70;;;6.30;66.70;8.30;99929.00;;;;5050504;28;20673;-75
2024/01/15 08:30:32;;;;;;;3.92;0.80;;;6.40;66.80;8.30;99923.00;;;;5033731;28;20208;-75
2024/01/15 08:32:59;;;;;;;1.10;0.68;;;6.40;66.80;8.30;99926.00;;;;5033479;28;20613;-75
2024/01/15 08:35:26;;;;;;;2.03;0.93;;;6.30;66.70;8.30;99932.00;;;;5033551;28;20192;-76
2024/01/15 08:37:54;;;;;;;1.67;1.00;;;6.30;66.70;8.20;99933.00;;;;5037274;28;20203;-76
2024/01/15 08:40:21;;;;;;;3.65;1.15;;;6.30;66.70;8.30;99931.00;;;;5034743;28;20676;-76
2024/01/15 08:42:50;;;;;;;1.33;0.82;;;6.30;66.70;8.30;99939.00;;;;5033408;28;20295;-76
2024/01/15 08:45:17;;;;;;;2.28;0.80;;;6.30;66.70;8.30;99948.00;;;;5033345;28;20316;-76
2024/01/15 08:47:44;;;;;;;2.20;1.20;;;6.30;66.80;8.30;99948.00;;;;5033355;28;20208;-77
2024/01/15 08:50:11;;;;;;;2.45;0.80;;;6.30;66.90;8.30;99953.00;;;;5033474;28;20202;-77
2024/01/15 08:52:38;;;;;;;2.15;0.95;;;6.40;66.90;8.30;99952.00;;;;5033718;28;20202;-76
2024/01/15 08:55:07;;;;;;;2.25;0.80;;;6.30;66.80;8.30;99951.00;;;;5040668;28;20207;-76
2024/01/15 08:57:35;;;;;;;4.25;0.90;;;6.40;66.80;8.30;99940.00;;;;5034011;28;20196;-76
2024/01/15 09:00:03;;;;;;;3.08;0.50;;;6.40;66.80;8.30;99931.00;;;;5033152;28;20204;-77
2024/01/15 09:02:31;;;;;;;1.58;0.70;;;6.40;66.80;8.30;99939.00;;;;5032741;28;20758;-77
2024/01/15 09:04:58;;;;;;;1.95;0.85;;;6.40;66.70;8.30;99945.00;;;;5032866;28;20224;-77
2024/01/15 09:07:26;;;;;;;1.40;0.50;;;6.40;66.70;8.30;99950.00;;;;5033046;28;20208;-77
2024/01/15 09:09:54;;;;;;;4.03;0.70;;;6.40;67.40;8.30;99953.00;;;;5033124;28;20617;-77
2024/01/15 09:12:22;;;;;;;2.25;0.68;;;6.40;66.70;8.40;99958.00;;;;5042811;28;20196;-77
2024/01/15 09:14:50;;;;;;;1.70;0.63;;;6.40;66.80;8.40;99972.00;;;;5052780;28;20200;-77
2024/01/15 09:17:18;;;;;;;2.35;0.68;;;6.40;67.00;8.40;99977.00;;;;5039519;28;20281;-77
2024/01/15 09:19:45;;;;;;;1.13;0.40;;;6.40;67.00;8.50;99971.00;;;;5031779;28;20207;-78
2024/01/15 09:22:14;;;;;;;1.15;0.40;;;6.40;66.90;8.40;99977.00;;;;5032577;28;20254;-78
2024/01/15 09:24:42;;;;;;;0.50;0.30;;;6.50;66.90;8.40;99974.00;;;;5032510;28;20692;-77
2024/01/15 09:27:09;;;;;;;0.60;0.20;;;6.40;66.70;8.40;99974.00;;;;5031747;28;20193;-78
2024/01/15 09:29:37;;;;;;;1.30;0.35;;;6.50;66.70;8.40;99968.00;;;;5043688;28;20326;-77
2024/01/15 09:32:04;;;;;;;0.57;0.22;;;6.50;66.70;8.40;99953.00;;;;5029313;28;20204;-78
2024/01/15 09:34:32;;;;;;;1.35;0.30;;;6.40;66.60;8.40;99955.00;;;;5031396;28;20291;-77
2024/01/15 09:37:00;;;;;;;0.85;0.30;;;6.50;67.40;8.40;99961.00;;;;5032064;28;20193;-77
2024/01/15 09:39:28;;;;;;;1.40;0.45;;;6.50;66.80;8.50;99962.00;;;;5027388;28;20295;-78
2024/01/15 09:41:55;;;;;;;1.58;0.68;;;6.50;66.90;8.50;99976.00;;;;5030393;28;20206;-77
2024/01/15 09:44:24;;;;;;;2.65;0.63;;;6.50;66.90;8.50;99969.00;;;;5031793;28;20674;-75
2024/01/15 09:46:52;;;;;;;2.28;0.70;;;6.50;66.90;8.50;99968.00;;;;5045671;28;20234;-74
2024/01/15 09:49:20;;;;;;;2.08;0.50;;;6.50;66.90;8.60;99967.00;;;;5030605;28;20200;-73
2024/01/15 09:51:49;;;;;;;1.15;0.60;;;6.50;66.80;8.60;99969.00;;;;5031943;28;20549;-74
2024/01/15 09:54:17;;;;;;;4.45;0.77;;;6.60;66.80;8.60;99966.00;;;;5031973;28;20211;-74
2024/01/15 09:56:47;;;;;;;1.63;0.50;;;6.60;66.80;8.60;99960.00;;;;5032354;28;20699;-73
2024/01/15 09:59:16;;;;;;;2.80;0.70;;;6.60;66.70;8.60;99960.00;;;;5031693;28;20598;-74
2024/01/15 10:01:44;;;;;;;1.70;0.50;;;6.60;66.80;8.60;99951.00;;;;5031461;28;20205;-76
2024/01/15 10:04:12;;;;;;;3.60;1.30;;;6.60;66.70;8.70;99956.00;;;;5049448;28;20207;-76
2024/01/15 10:06:40;;;;;;;2.47;0.57;;;6.60;66.60;8.60;99948.00;;;;5033364;28;20768;-75
2024/01/15 10:09:09;;;;;;;1.83;0.50;;;6.60;66.60;8.50;99945.00;;;;5040434;28;20206;-75
2024/01/15 10:11:36;;;;;;;1.38;0.43;;;6.60;66.50;8.60;99945.00;;;;5031661;28;20581;-75
2024/01/15 10:14:06;;;;;;;1.73;0.68;;;6.60;66.40;8.50;99943.00;;;;5031640;28;20208;-77
2024/01/15 10:16:33;;;;;;;1.30;0.50;;;6.60;66.40;8.50;99944.00;;;;5032066;28;20196;-77
2024/01/15 10:19:00;;;;;;;2.22;0.70;;;6.60;66.50;8.60;99953.00;;;;5031110;28;20215;-78
2024/01/15 10:21:27;;;;;;;1.77;0.55;;;6.60;66.70;8.60;99951.00;;;;5050638;28;20265;-77
2024/01/15 10:23:55;;;;;;;1.42;0.60;;;6.60;66.90;8.70;99953.00;;;;5040867;28;20213;-78
2024/01/15 10:26:28;;;;;;;1.20;0.55;;;6.70;67.10;8.70;99958.00;;;;5012697;28;20793;-78
2024/01/15 10:28:55;;;;;;;2.92;0.55;;;6.70;67.40;8.80;99959.00;;;;5031850;28;20204;-78
2024/01/15 10:31:22;;;;;;;2.22;0.63;;;6.80;67.50;8.90;99951.00;;;;5031843;28;20205;-78
2024/01/15 10:33:49;;;;;;;3.47;0.93;;;6.80;67.50;8.90;99935.00;;;;5030111;28;20200;-78
2024/01/15 10:36:17;;;;;;;1.70;0.57;;;6.90;67.50;8.90;99938.00;;;;5034312;28;20676;-77
2024/01/15 10:38:45;;;;;;;2.08;0.75;;;6.90;67.40;9.00;99949.00;;;;5024001;28;20204;-77
2024/01/15 10:41:13;;;;;;;3.17;0.85;;;7.00;67.30;9.10;99943.00;;;;5029266;28;20189;-77
2024/01/15 10:43:41;;;;;;;3.03;0.30;;;7.00;67.30;9.10;99951.00;;;;5031684;28;20650;-77
2024/01/15 10:46:10;;;;;;;1.33;0.35;;;7.10;68.10;9.10;99946.00;;;;5029684;28;20226;-77
2024/01/15 10:48:37;;;;;;;1.27;0.30;;;7.20;67.40;9.20;99949.00;;;;5031444;28;20227;-76
2024/01/15 10:51:10;;;;;;;1.83;0.38;;;7.20;67.20;9.10;99950.00;;;;5031459;28;20541;-77
2024/01/15 10:53:40;;;;;;;2.88;0.52;;;7.30;67.00;9.10;99956.00;;;;5033344;28;20199;-78
2024/01/15 10:56:10;;;;;;;1.98;0.30;;;7.30;66.60;9.10;99954.00;;;;5031575;28;20200;-77
2024/01/15 10:58:42;;;;;;;4.05;0.68;;;7.30;66.30;9.00;99962.00;;;;5031176;28;20208;-77
2024/01/15 11:01:10;;;;;;;6.03;0.90;;;7.30;66.30;9.10;99967.00;;;;5031034;28;20242;-78
2024/01/15 11:03:37;;;;;;;3.53;0.43;;;7.30;66.40;9.10;99965.00;;;;5031433;28;20193;-74
2024/01/15 11:06:18;;;;;;;1.35;0.50;;;7.30;66.50;9.10;99971.00;;;;5030116;28;20231;-74
2024/01/15 11:08:46;;;;;;;2.00;0.60;;;7.30;66.60;9.20;99973.00;;;;5031068;28;20208;-75